Time;durP1;ratioP1;P1;durP2;ratioP2;P2;SDS_P1;SDS_P2;PMS_P1;PMS_P2;Temp;Humidity;BMP_temperature;BMP_pressure;BME280_temperature;BME280_humidity;BME280_pressure;Samples;Min_cycle;Max_cycle;Signal;HPM_P1;HPM_P2
2021/01/18 00:00:12;;;;;;;1.35;1.00;;;20.60;48.70;;;;;;4950152;28;20039;-61
2021/01/18 00:02:38;;;;;;;2.30;1.20;;;20.60;48.70;;;;;;4953134;28;20028;-64
2021/01/18 00:05:06;;;;;;;2.58;1.52;;;20.60;48.60;;;;;;4953565;28;20031;-59
2021/01/18 00:07:45;;;;;;;3.08;1.60;;;20.60;48.60;;;;;;4952945;28;20491;-61
2021/01/18 00:10:19;;;;;;;1.95;1.10;;;20.50;48.50;;;;;;4952257;29;20027;-60
2021/01/18 00:12:53;;;;;;;3.60;1.30;;;20.50;48.50;;;;;;4952824;28;20027;-60
2021/01/18 00:15:20;;;;;;;4.15;1.50;;;20.60;48.50;;;;;;4953527;28;20094;-59
2021/01/18 00:17:47;;;;;;;1.45;1.10;;;20.60;48.40;;;;;;4952500;28;20031;-60
2021/01/18 00:20:14;;;;;;;2.10;1.10;;;20.60;48.40;;;;;;4953043;28;20392;-60
2021/01/18 00:22:41;;;;;;;1.63;1.10;;;20.60;48.40;;;;;;4952932;28;20079;-63
2021/01/18 00:25:10;;;;;;;3.28;1.30;;;20.60;48.30;;;;;;4953084;28;20035;-60
2021/01/18 00:27:36;;;;;;;5.47;1.45;;;20.60;48.30;;;;;;4949921;28;20031;-59
2021/01/18 00:30:07;;;;;;;3.15;1.17;;;20.60;48.30;;;;;;4949178;28;20480;-60
2021/01/18 00:32:32;;;;;;;1.90;1.00;;;20.60;48.20;;;;;;4952866;28;20063;-59
2021/01/18 00:34:58;;;;;;;1.75;1.00;;;20.60;48.20;;;;;;4952805;28;20035;-59
2021/01/18 00:37:24;;;;;;;1.25;0.90;;;20.60;48.10;;;;;;4952633;28;20031;-60
2021/01/18 00:39:50;;;;;;;1.77;0.90;;;20.60;48.10;;;;;;4952042;29;20027;-60
2021/01/18 00:42:20;;;;;;;2.83;1.20;;;20.60;48.10;;;;;;4953486;29;20039;-60
2021/01/18 00:44:46;;;;;;;2.70;1.52;;;20.60;48.30;;;;;;4950844;28;20027;-60
2021/01/18 00:47:12;;;;;;;2.70;1.00;;;20.60;48.00;;;;;;4952444;28;20460;-60
2021/01/18 00:49:37;;;;;;;3.50;1.20;;;20.60;48.00;;;;;;4949942;28;20083;-63
2021/01/18 00:52:03;;;;;;;4.40;1.67;;;20.60;47.90;;;;;;4952018;29;20039;-59
2021/01/18 00:54:29;;;;;;;1.88;0.93;;;20.60;47.90;;;;;;4951368;29;20027;-59
2021/01/18 00:56:55;;;;;;;1.73;0.85;;;20.60;47.90;;;;;;4951194;28;20384;-59
2021/01/18 00:59:20;;;;;;;3.10;1.20;;;20.60;47.80;;;;;;4949023;28;20035;-59
2021/01/18 01:01:46;;;;;;;1.75;1.08;;;20.60;47.80;;;;;;4953128;29;20058;-60
2021/01/18 01:04:11;;;;;;;2.60;0.95;;;20.60;47.70;;;;;;4953322;28;20416;-59
2021/01/18 01:06:37;;;;;;;1.60;0.85;;;20.60;47.70;;;;;;4951603;28;20127;-63
2021/01/18 01:09:04;;;;;;;2.40;1.35;;;20.60;47.60;;;;;;4952150;28;20034;-59
2021/01/18 01:11:30;;;;;;;2.15;0.98;;;20.60;47.60;;;;;;4953074;28;20069;-58
2021/01/18 01:13:55;;;;;;;1.60;0.90;;;20.60;47.60;;;;;;4951381;29;20066;-59
2021/01/18 01:16:21;;;;;;;1.40;1.08;;;20.60;47.50;;;;;;4953755;28;20026;-59
2021/01/18 01:18:46;;;;;;;2.53;1.10;;;20.70;47.50;;;;;;4955959;28;20042;-57
2021/01/18 01:21:12;;;;;;;1.50;0.90;;;20.60;47.40;;;;;;4956029;28;20090;-58
2021/01/18 01:23:38;;;;;;;2.15;1.05;;;20.70;47.50;;;;;;4956110;28;20086;-62
2021/01/18 01:26:04;;;;;;;1.98;0.98;;;20.60;47.30;;;;;;4956273;28;20043;-57
2021/01/18 01:28:30;;;;;;;2.38;0.93;;;20.70;47.40;;;;;;4960267;28;20505;-57
2021/01/18 01:30:55;;;;;;;1.83;1.30;;;20.60;47.30;;;;;;4961385;28;20034;-57
2021/01/18 01:33:21;;;;;;;1.80;1.23;;;20.60;47.20;;;;;;4956677;29;20057;-57
2021/01/18 01:35:47;;;;;;;1.80;0.90;;;20.60;47.20;;;;;;4954220;28;20038;-57
2021/01/18 01:38:12;;;;;;;1.02;0.82;;;20.60;47.20;;;;;;4956200;29;20070;-57
2021/01/18 01:40:38;;;;;;;0.95;0.85;;;20.60;47.20;;;;;;4955733;29;20077;-62
2021/01/18 01:43:07;;;;;;;1.33;0.93;;;20.70;47.20;;;;;;4956169;28;20031;-59
2021/01/18 01:45:33;;;;;;;1.33;1.05;;;20.70;47.20;;;;;;4956163;29;20136;-58
2021/01/18 01:48:00;;;;;;;2.22;1.20;;;20.70;47.10;;;;;;4956065;29;20754;-59
2021/01/18 01:50:30;;;;;;;1.48;1.05;;;20.70;47.10;;;;;;4955471;28;20035;-59
2021/01/18 01:53:21;;;;;;;0.82;0.70;;;20.70;47.10;;;;;;4955518;28;20023;-59
2021/01/18 01:55:48;;;;;;;2.15;1.00;;;20.70;47.10;;;;;;4955633;28;20031;-59
2021/01/18 01:58:14;;;;;;;1.33;0.90;;;20.60;47.00;;;;;;4951872;28;20070;-59
2021/01/18 02:00:42;;;;;;;2.28;1.00;;;20.70;47.00;;;;;;4955759;28;20072;-62
2021/01/18 02:03:10;;;;;;;1.90;0.73;;;20.70;47.00;;;;;;4955600;28;20492;-59
2021/01/18 02:05:37;;;;;;;2.22;1.00;;;20.70;46.90;;;;;;4956164;28;20424;-60
2021/01/18 02:08:04;;;;;;;1.30;0.90;;;20.70;46.90;;;;;;4953760;28;20031;-59
2021/01/18 02:10:32;;;;;;;1.73;0.98;;;20.70;46.90;;;;;;4955600;28;20031;-59
2021/01/18 02:13:20;;;;;;;1.48;0.82;;;20.70;46.90;;;;;;4955861;28;20042;-60
2021/01/18 02:16:07;;;;;;;2.30;1.35;;;20.70;46.80;;;;;;4954627;28;20046;-59
2021/01/18 02:18:44;;;;;;;1.77;0.88;;;20.70;46.80;;;;;;4955435;28;20381;-59
2021/01/18 02:21:39;;;;;;;1.25;0.90;;;20.60;47.30;;;;;;4955908;29;20477;-58
2021/01/18 02:24:52;;;;;;;1.15;0.70;;;20.70;46.70;;;;;;4955832;29;20040;-60
2021/01/18 02:27:48;;;;;;;1.30;0.90;;;20.70;46.70;;;;;;4953864;28;20039;-59
2021/01/18 02:30:58;;;;;;;1.80;0.70;;;20.70;46.70;;;;;;4954371;28;20031;-58
2021/01/18 02:34:01;;;;;;;1.02;0.80;;;20.70;46.70;;;;;;4955121;28;20027;-59
2021/01/18 02:36:26;;;;;;;0.85;0.70;;;20.70;46.60;;;;;;4954330;29;20674;-59
2021/01/18 02:38:59;;;;;;;1.50;0.93;;;20.70;46.60;;;;;;4954804;29;20035;-59
2021/01/18 02:42:08;;;;;;;1.88;0.70;;;20.60;46.50;;;;;;4955670;28;20027;-59
2021/01/18 02:44:37;;;;;;;0.90;0.68;;;20.70;46.50;;;;;;4946175;28;20394;-59
2021/01/18 02:47:04;;;;;;;1.42;0.75;;;20.70;46.50;;;;;;4954404;28;20039;-59
2021/01/18 02:49:31;;;;;;;2.10;0.95;;;20.70;46.50;;;;;;4954615;28;20034;-59
2021/01/18 02:52:10;;;;;;;1.48;0.90;;;20.70;46.40;;;;;;4954105;28;20039;-59
2021/01/18 02:54:36;;;;;;;2.15;0.77;;;20.70;46.40;;;;;;4955984;28;20041;-59
2021/01/18 02:57:05;;;;;;;0.77;0.70;;;20.70;46.30;;;;;;4958039;28;20039;-59
2021/01/18 02:59:31;;;;;;;1.73;0.95;;;20.70;46.30;;;;;;4952249;28;20477;-60
2021/01/18 03:02:14;;;;;;;1.50;0.80;;;20.70;46.30;;;;;;4953040;28;20059;-60
2021/01/18 03:04:48;;;;;;;0.98;0.77;;;20.70;46.30;;;;;;4951457;29;20030;-63
2021/01/18 03:07:32;;;;;;;0.95;0.60;;;20.70;46.30;;;;;;4953259;28;20039;-59
2021/01/18 03:10:12;;;;;;;1.58;0.80;;;20.70;46.30;;;;;;4952283;29;20032;-59
2021/01/18 03:12:52;;;;;;;0.88;0.60;;;20.70;46.20;;;;;;4953014;28;20035;-63
2021/01/18 03:15:20;;;;;;;3.20;0.90;;;20.70;46.20;;;;;;4952568;29;20039;-60
2021/01/18 03:17:46;;;;;;;1.13;0.70;;;20.70;46.10;;;;;;4952532;28;20411;-59
2021/01/18 03:20:13;;;;;;;3.70;1.25;;;20.70;46.10;;;;;;4952989;28;20082;-59
2021/01/18 03:22:40;;;;;;;1.15;0.65;;;20.70;46.80;;;;;;4952352;28;20047;-64
2021/01/18 03:25:07;;;;;;;2.30;0.80;;;20.70;46.10;;;;;;4953489;28;20035;-60
2021/01/18 03:27:49;;;;;;;0.90;0.70;;;20.70;46.10;;;;;;4951537;28;20797;-58
2021/01/18 03:30:22;;;;;;;2.00;1.10;;;20.70;46.10;;;;;;4952866;28;20038;-59
2021/01/18 03:32:52;;;;;;;1.83;0.82;;;20.70;46.00;;;;;;4952936;28;20094;-57
2021/01/18 03:35:18;;;;;;;1.23;0.60;;;20.70;46.00;;;;;;4954787;28;20122;-61
2021/01/18 03:37:54;;;;;;;2.20;0.75;;;20.70;46.00;;;;;;4952691;28;20103;-59
2021/01/18 03:40:21;;;;;;;1.58;0.68;;;20.70;46.00;;;;;;4953787;28;20027;-59
2021/01/18 03:42:58;;;;;;;1.17;0.70;;;20.70;46.00;;;;;;4953092;28;20078;-53
2021/01/18 03:45:29;;;;;;;1.65;0.77;;;20.70;45.90;;;;;;4954476;28;20062;-57
2021/01/18 03:47:55;;;;;;;1.45;0.90;;;20.70;45.90;;;;;;4953410;28;20023;-57
2021/01/18 03:50:21;;;;;;;1.25;0.50;;;20.70;45.90;;;;;;4953871;29;20047;-59
2021/01/18 03:52:50;;;;;;;0.98;0.60;;;20.70;45.90;;;;;;4953039;28;20037;-59
2021/01/18 03:55:17;;;;;;;1.15;0.70;;;20.70;45.90;;;;;;4953918;28;20063;-59
2021/01/18 03:57:46;;;;;;;2.25;0.80;;;20.70;45.90;;;;;;4950875;28;20070;-63
2021/01/18 04:00:12;;;;;;;1.48;0.57;;;20.70;45.80;;;;;;4952727;28;20027;-59
2021/01/18 04:02:39;;;;;;;2.25;1.02;;;20.70;45.80;;;;;;4953229;28;20046;-63
2021/01/18 04:05:05;;;;;;;1.83;0.85;;;20.70;45.80;;;;;;4953060;28;20031;-59
2021/01/18 04:07:31;;;;;;;1.98;0.60;;;20.70;45.80;;;;;;4954292;28;20039;-59
2021/01/18 04:09:56;;;;;;;1.52;0.90;;;20.70;45.80;;;;;;4951543;29;20034;-59
2021/01/18 04:12:22;;;;;;;1.92;0.90;;;20.70;45.70;;;;;;4953747;29;20038;-59
2021/01/18 04:14:49;;;;;;;1.63;0.70;;;20.70;45.70;;;;;;4952497;28;20016;-58
2021/01/18 04:17:16;;;;;;;1.63;0.93;;;20.70;45.70;;;;;;4954112;28;20036;-59
2021/01/18 04:19:42;;;;;;;1.95;0.73;;;20.70;45.60;;;;;;4953010;28;20123;-62
2021/01/18 04:22:07;;;;;;;0.73;0.70;;;20.80;45.70;;;;;;4953370;28;20142;-60
2021/01/18 04:24:34;;;;;;;1.25;0.75;;;20.80;45.70;;;;;;4953774;28;20420;-60
2021/01/18 04:27:00;;;;;;;1.63;0.70;;;20.80;45.60;;;;;;4952683;28;20615;-59
2021/01/18 04:29:26;;;;;;;2.50;0.68;;;20.70;45.60;;;;;;4953810;28;20024;-59
2021/01/18 04:31:52;;;;;;;2.15;0.70;;;20.70;45.60;;;;;;4954002;28;20039;-59
2021/01/18 04:34:18;;;;;;;1.17;0.75;;;20.70;45.60;;;;;;4952424;28;20031;-59
2021/01/18 04:36:44;;;;;;;2.53;0.75;;;20.70;45.60;;;;;;4952489;28;20031;-59
2021/01/18 04:39:10;;;;;;;0.95;0.63;;;20.70;45.50;;;;;;4952874;28;20096;-59
2021/01/18 04:41:43;;;;;;;3.38;1.35;;;20.80;45.60;;;;;;4953620;28;20380;-59
2021/01/18 04:44:16;;;;;;;1.92;1.02;;;20.70;45.50;;;;;;4952654;28;20027;-59
2021/01/18 04:46:44;;;;;;;2.28;0.80;;;20.80;45.50;;;;;;4952788;28;20034;-63
2021/01/18 04:49:11;;;;;;;1.20;0.80;;;20.80;45.50;;;;;;4953384;28;20380;-59
2021/01/18 04:51:54;;;;;;;1.30;0.70;;;20.80;45.50;;;;;;4953864;28;20031;-61
2021/01/18 04:54:22;;;;;;;2.05;1.00;;;20.80;45.50;;;;;;4957459;28;20142;-59
2021/01/18 04:57:08;;;;;;;1.25;0.65;;;20.80;45.40;;;;;;4956502;28;20031;-59
2021/01/18 04:59:39;;;;;;;1.50;0.80;;;20.80;45.40;;;;;;4961969;28;20413;-59
2021/01/18 05:02:23;;;;;;;1.27;0.77;;;20.70;45.40;;;;;;4956838;28;20039;-59
2021/01/18 05:04:50;;;;;;;1.38;0.80;;;20.80;45.40;;;;;;4956341;28;20136;-59
2021/01/18 05:07:28;;;;;;;1.10;0.70;;;20.80;45.40;;;;;;4956336;28;20055;-59
2021/01/18 05:10:25;;;;;;;2.53;1.08;;;20.80;45.40;;;;;;4956061;28;20039;-60
2021/01/18 05:12:56;;;;;;;1.35;0.80;;;20.80;45.30;;;;;;4950980;29;20118;-55
2021/01/18 05:15:24;;;;;;;2.47;0.65;;;20.80;45.30;;;;;;4956863;28;20074;-58
2021/01/18 05:17:55;;;;;;;2.13;0.80;;;20.80;45.30;;;;;;4956091;28;20047;-55
2021/01/18 05:20:21;;;;;;;1.20;0.80;;;20.80;45.30;;;;;;4956538;28;20399;-57
2021/01/18 05:22:52;;;;;;;0.95;0.80;;;20.80;45.30;;;;;;4955594;28;20055;-60
2021/01/18 05:25:19;;;;;;;0.85;0.70;;;20.80;45.20;;;;;;4956684;28;20384;-59
2021/01/18 05:28:06;;;;;;;1.30;0.90;;;20.80;45.20;;;;;;4953813;28;20043;-61
2021/01/18 05:30:43;;;;;;;1.58;0.93;;;20.80;45.20;;;;;;4945500;28;20034;-60
2021/01/18 05:33:10;;;;;;;1.02;0.88;;;20.80;45.20;;;;;;4956594;28;20488;-49
2021/01/18 05:35:47;;;;;;;1.98;1.00;;;20.80;45.10;;;;;;4956793;28;20031;-58
2021/01/18 05:38:13;;;;;;;1.73;0.98;;;20.80;45.10;;;;;;4955787;28;20046;-59
2021/01/18 05:40:45;;;;;;;2.20;1.10;;;20.80;45.20;;;;;;4956300;28;20030;-64
2021/01/18 05:43:13;;;;;;;1.33;0.73;;;20.80;45.10;;;;;;4956208;28;20034;-58
2021/01/18 05:45:40;;;;;;;2.50;0.90;;;20.80;45.10;;;;;;4956049;28;20621;-64
2021/01/18 05:48:08;;;;;;;0.98;0.55;;;20.80;45.10;;;;;;4956166;28;20133;-61
2021/01/18 05:50:36;;;;;;;1.35;0.80;;;20.80;45.00;;;;;;4956177;28;20027;-59
2021/01/18 05:53:22;;;;;;;1.00;0.70;;;20.80;45.00;;;;;;4955327;28;20027;-58
2021/01/18 05:55:47;;;;;;;0.90;0.70;;;20.80;45.10;;;;;;4955385;28;20039;-59
2021/01/18 05:58:31;;;;;;;1.70;0.65;;;20.90;44.80;;;;;;4963518;28;20126;-60
2021/01/18 06:00:57;;;;;;;1.92;0.80;;;20.80;44.90;;;;;;4955153;28;20443;-59
2021/01/18 06:03:28;;;;;;;2.13;0.85;;;20.80;44.90;;;;;;4955534;28;20031;-59
2021/01/18 06:05:54;;;;;;;1.80;0.70;;;20.80;44.90;;;;;;4955123;28;20103;-59
2021/01/18 06:08:20;;;;;;;1.25;0.73;;;20.80;44.90;;;;;;4956222;28;20034;-59
2021/01/18 06:10:47;;;;;;;1.33;0.80;;;20.70;44.90;;;;;;4954660;28;20019;-60
2021/01/18 06:13:25;;;;;;;1.00;0.63;;;20.70;44.90;;;;;;4954901;28;20035;-61
2021/01/18 06:16:12;;;;;;;1.98;0.90;;;20.80;44.90;;;;;;4954298;28;20031;-59
2021/01/18 06:18:40;;;;;;;1.88;0.85;;;20.80;45.30;;;;;;4951973;28;20067;-59
2021/01/18 06:21:10;;;;;;;1.60;0.80;;;20.90;44.90;;;;;;4954691;28;20039;-60
2021/01/18 06:23:36;;;;;;;2.88;0.90;;;20.80;44.90;;;;;;4955666;28;20050;-59
2021/01/18 06:26:02;;;;;;;1.60;0.70;;;20.80;44.90;;;;;;4953606;29;20122;-59
2021/01/18 06:28:34;;;;;;;1.92;0.70;;;20.80;44.90;;;;;;4966727;28;20071;-60
2021/01/18 06:31:14;;;;;;;1.00;0.80;;;20.80;44.90;;;;;;4959275;28;20074;-59
2021/01/18 06:33:45;;;;;;;1.58;0.90;;;20.80;44.90;;;;;;4955132;28;20085;-59
2021/01/18 06:36:15;;;;;;;2.17;1.07;;;20.80;44.90;;;;;;4954246;29;20118;-59
2021/01/18 06:39:00;;;;;;;1.35;0.85;;;20.80;44.90;;;;;;4955236;28;20302;-64
2021/01/18 06:41:28;;;;;;;1.58;0.90;;;20.80;44.80;;;;;;4955213;28;20031;-59
2021/01/18 06:43:55;;;;;;;6.38;1.48;;;20.80;44.90;;;;;;4953255;29;20468;-59
2021/01/18 06:46:28;;;;;;;3.92;1.20;;;20.80;44.90;;;;;;4954530;28;20035;-60
2021/01/18 06:48:54;;;;;;;1.63;0.80;;;20.80;45.00;;;;;;4950555;28;20031;-63
2021/01/18 06:51:24;;;;;;;2.35;1.00;;;20.90;45.70;;;;;;4954866;28;20467;-58
2021/01/18 06:53:52;;;;;;;3.78;1.02;;;20.90;45.30;;;;;;4954023;28;20439;-60
2021/01/18 06:56:21;;;;;;;3.90;1.30;;;20.90;45.30;;;;;;4954914;28;20106;-59
2021/01/18 06:59:15;;;;;;;7.82;1.38;;;20.90;45.50;;;;;;4957888;28;20043;-57
2021/01/18 07:01:46;;;;;;;5.20;1.25;;;20.90;45.80;;;;;;4958610;28;20073;-63
2021/01/18 07:04:24;;;;;;;8.50;1.23;;;20.90;45.90;;;;;;4955733;28;20067;-59
2021/01/18 07:06:58;;;;;;;5.03;1.95;;;20.90;46.00;;;;;;4953700;28;20031;-59
2021/01/18 07:09:26;;;;;;;6.35;1.30;;;20.90;46.10;;;;;;4954910;28;20050;-58
2021/01/18 07:12:02;;;;;;;8.70;1.23;;;20.90;46.50;;;;;;4953542;28;20032;-59
2021/01/18 07:14:29;;;;;;;6.88;1.30;;;20.90;45.20;;;;;;4952417;28;20035;-59
2021/01/18 07:17:03;;;;;;;6.50;1.50;;;21.00;46.10;;;;;;4953506;28;20125;-59
2021/01/18 07:19:38;;;;;;;5.63;1.23;;;20.90;46.00;;;;;;4954505;28;20108;-57
2021/01/18 07:22:25;;;;;;;5.03;1.50;;;20.90;46.10;;;;;;4953275;28;20126;-57
2021/01/18 07:24:58;;;;;;;6.65;1.20;;;20.90;46.00;;;;;;4954168;29;20372;-63
2021/01/18 07:27:25;;;;;;;3.40;1.27;;;20.90;46.00;;;;;;4953698;28;20027;-58
2021/01/18 07:29:52;;;;;;;6.55;1.20;;;20.90;46.10;;;;;;4961201;28;20024;-59
2021/01/18 07:32:20;;;;;;;7.13;2.00;;;20.90;46.10;;;;;;4953528;28;20480;-60
2021/01/18 07:34:46;;;;;;;5.65;2.00;;;20.90;46.20;;;;;;4953506;28;20038;-66
2021/01/18 07:37:12;;;;;;;5.97;1.45;;;20.80;46.10;;;;;;4954315;28;20507;-65
2021/01/18 07:39:42;;;;;;;4.57;1.23;;;20.80;46.10;;;;;;4969023;28;20051;-58
2021/01/18 07:42:30;;;;;;;4.70;1.25;;;20.80;46.10;;;;;;4953571;28;20099;-59
2021/01/18 07:45:14;;;;;;;4.68;1.63;;;20.80;46.00;;;;;;4953506;28;20123;-59
2021/01/18 07:47:57;;;;;;;4.13;1.23;;;20.80;46.00;;;;;;4964344;28;20026;-59
2021/01/18 07:50:32;;;;;;;5.75;1.38;;;20.80;46.00;;;;;;4959344;28;20049;-59
2021/01/18 07:53:09;;;;;;;8.57;1.50;;;20.80;46.00;;;;;;4952473;28;20035;-58
2021/01/18 07:55:35;;;;;;;7.70;1.85;;;20.80;45.80;;;;;;4954247;28;20028;-59
2021/01/18 07:58:20;;;;;;;4.90;1.00;;;20.70;45.80;;;;;;4948968;28;20118;-57
2021/01/18 08:00:50;;;;;;;5.28;1.50;;;20.80;45.80;;;;;;4952995;28;20472;-66
2021/01/18 08:03:21;;;;;;;3.28;1.05;;;20.70;45.80;;;;;;4953269;28;20035;-59
2021/01/18 08:05:47;;;;;;;2.55;1.10;;;20.70;45.80;;;;;;4953052;28;20032;-65
2021/01/18 08:08:17;;;;;;;2.78;0.80;;;20.80;45.70;;;;;;4953771;28;20042;-58
2021/01/18 08:11:13;;;;;;;3.38;1.10;;;20.80;45.60;;;;;;4953142;28;20062;-66
2021/01/18 08:13:53;;;;;;;2.08;0.90;;;20.80;45.60;;;;;;4953996;29;20115;-60
2021/01/18 08:16:37;;;;;;;5.60;1.00;;;20.80;45.60;;;;;;4953621;28;20488;-59
2021/01/18 08:19:19;;;;;;;3.42;0.90;;;20.80;45.50;;;;;;4933707;29;20051;-58
2021/01/18 08:21:57;;;;;;;4.03;1.00;;;20.80;45.50;;;;;;4952502;29;20059;-64
2021/01/18 08:24:23;;;;;;;2.15;1.25;;;20.80;45.40;;;;;;4952705;28;20031;-60
2021/01/18 08:27:09;;;;;;;2.80;1.00;;;20.80;45.40;;;;;;4952534;28;20033;-61
2021/01/18 08:29:50;;;;;;;4.82;1.35;;;20.70;45.40;;;;;;4963221;28;20035;-61
2021/01/18 08:32:33;;;;;;;4.75;1.35;;;20.80;45.40;;;;;;4953200;28;20078;-61
2021/01/18 08:35:25;;;;;;;5.10;1.73;;;20.70;45.30;;;;;;4952361;28;20038;-61
2021/01/18 08:38:08;;;;;;;2.17;1.20;;;20.70;45.30;;;;;;4947210;28;20044;-59
2021/01/18 08:40:45;;;;;;;4.53;1.17;;;20.70;45.30;;;;;;4953424;28;20047;-60
2021/01/18 08:43:13;;;;;;;2.97;1.10;;;20.70;45.30;;;;;;4953458;28;20036;-60
2021/01/18 08:45:47;;;;;;;2.17;1.15;;;20.70;45.20;;;;;;4953006;28;20028;-60
2021/01/18 08:48:15;;;;;;;4.03;1.00;;;20.70;45.60;;;;;;4949164;28;20047;-59
2021/01/18 08:50:52;;;;;;;3.25;1.10;;;20.80;45.10;;;;;;4953082;28;20118;-60
2021/01/18 08:53:41;;;;;;;3.03;1.05;;;20.80;45.00;;;;;;4934358;29;20042;-60
2021/01/18 08:56:27;;;;;;;3.70;1.42;;;20.80;45.10;;;;;;4946388;29;20065;-64
2021/01/18 08:58:53;;;;;;;1.67;0.85;;;20.70;45.00;;;;;;4956779;28;20041;-59
2021/01/18 09:01:20;;;;;;;2.05;1.02;;;20.70;45.00;;;;;;4972315;28;20034;-58
2021/01/18 09:03:59;;;;;;;1.58;0.98;;;20.70;44.90;;;;;;4971650;28;20077;-66
2021/01/18 09:06:25;;;;;;;3.72;0.95;;;20.80;44.90;;;;;;4956909;28;20476;-62
2021/01/18 09:09:01;;;;;;;2.50;0.88;;;20.70;44.80;;;;;;4952297;28;20036;-60
2021/01/18 09:11:27;;;;;;;1.52;0.73;;;20.70;44.80;;;;;;4953452;28;20039;-60
2021/01/18 09:13:53;;;;;;;4.68;1.00;;;20.70;44.90;;;;;;4951742;28;20090;-60
2021/01/18 09:16:19;;;;;;;2.50;1.00;;;20.70;44.90;;;;;;4952817;28;20039;-59
2021/01/18 09:18:44;;;;;;;1.63;0.73;;;20.70;44.90;;;;;;4952291;28;20098;-66
2021/01/18 09:21:10;;;;;;;3.53;1.00;;;20.70;44.90;;;;;;4952863;28;20082;-58
2021/01/18 09:23:36;;;;;;;4.25;1.73;;;20.70;44.90;;;;;;4944881;28;20469;-63
2021/01/18 09:26:10;;;;;;;2.80;1.10;;;20.70;44.90;;;;;;4949125;28;20070;-60
2021/01/18 09:28:36;;;;;;;1.85;1.10;;;20.80;44.60;;;;;;4949124;28;20040;-61
2021/01/18 09:31:10;;;;;;;2.15;1.00;;;20.70;44.70;;;;;;4946647;28;20034;-59
2021/01/18 09:33:36;;;;;;;2.67;1.00;;;20.80;44.70;;;;;;4952122;28;20039;-59
2021/01/18 09:36:02;;;;;;;4.68;1.20;;;20.80;44.60;;;;;;4956300;28;20047;-60
2021/01/18 09:38:27;;;;;;;3.45;1.05;;;20.80;44.60;;;;;;4958133;28;20078;-58
2021/01/18 09:40:53;;;;;;;3.38;1.20;;;20.80;43.90;;;;;;4955050;29;20082;-61
2021/01/18 09:43:21;;;;;;;2.85;1.02;;;20.70;43.90;;;;;;4955474;28;20023;-61
2021/01/18 09:45:56;;;;;;;1.50;1.00;;;20.70;44.20;;;;;;4955570;28;20110;-67
2021/01/18 09:48:26;;;;;;;2.50;1.00;;;20.70;44.20;;;;;;4955303;28;20540;-61
2021/01/18 09:51:06;;;;;;;6.43;1.88;;;20.80;44.30;;;;;;4955189;28;20424;-61
2021/01/18 09:53:33;;;;;;;2.40;0.88;;;20.70;44.30;;;;;;4949768;28;20439;-61
2021/01/18 09:56:12;;;;;;;2.17;0.85;;;20.70;44.30;;;;;;4953587;29;20471;-61
2021/01/18 09:58:45;;;;;;;2.88;1.10;;;20.80;44.50;;;;;;4951476;28;20431;-60
2021/01/18 10:01:39;;;;;;;;;;;20.80;44.40;;;;;;4954838;28;20031;-63
2021/01/18 10:04:07;;;;;;;2.20;0.80;;;20.80;44.50;;;;;;4936265;29;19906;-60
2021/01/18 10:06:35;;;;;;;2.35;0.90;;;20.70;44.50;;;;;;4947762;29;20047;-60
2021/01/18 10:09:08;;;;;;;1.13;0.75;;;20.80;44.50;;;;;;4953996;28;20416;-60
2021/01/18 10:11:44;;;;;;;2.00;1.00;;;20.80;44.60;;;;;;4955231;28;20733;-61
2021/01/18 10:14:28;;;;;;;4.65;1.17;;;20.70;44.60;;;;;;4954778;28;20034;-60
2021/01/18 10:17:07;;;;;;;1.98;0.95;;;20.70;44.60;;;;;;4949475;28;20276;-63
2021/01/18 10:19:35;;;;;;;2.25;1.00;;;20.80;44.60;;;;;;4934537;28;20036;-61
2021/01/18 10:22:04;;;;;;;1.95;0.80;;;20.70;44.50;;;;;;4951914;28;20066;-62
2021/01/18 10:24:34;;;;;;;1.98;1.05;;;20.80;44.60;;;;;;4950882;28;20057;-62
2021/01/18 10:27:15;;;;;;;2.58;1.13;;;20.80;44.60;;;;;;4953609;28;20123;-60
2021/01/18 10:29:41;;;;;;;1.70;0.90;;;20.80;44.60;;;;;;4949325;29;20031;-61
2021/01/18 10:32:10;;;;;;;2.92;0.95;;;20.80;44.60;;;;;;4954105;28;20066;-61
2021/01/18 10:34:36;;;;;;;2.50;1.02;;;20.80;44.40;;;;;;4954988;29;20039;-61
2021/01/18 10:37:12;;;;;;;1.70;0.75;;;20.80;44.60;;;;;;4954495;28;20424;-61
2021/01/18 10:39:42;;;;;;;2.40;0.95;;;20.80;44.50;;;;;;4949777;28;20031;-61
2021/01/18 10:42:18;;;;;;;3.53;0.90;;;20.80;44.60;;;;;;4952292;28;20055;-61
2021/01/18 10:44:51;;;;;;;3.13;1.20;;;20.70;44.60;;;;;;4954426;28;20103;-60
2021/01/18 10:47:26;;;;;;;2.70;0.90;;;20.70;44.60;;;;;;4954685;28;20054;-60
2021/01/18 10:49:53;;;;;;;2.40;1.10;;;20.80;44.60;;;;;;4952306;28;20115;-61
2021/01/18 10:52:19;;;;;;;1.60;0.80;;;20.80;44.60;;;;;;4952499;28;20038;-61
2021/01/18 10:55:01;;;;;;;3.15;0.80;;;20.80;44.60;;;;;;4954109;29;20106;-63
2021/01/18 10:57:27;;;;;;;;;;;20.80;44.60;;;;;;4952272;28;20037;-61
2021/01/18 11:00:11;;;;;;;1.38;0.68;;;20.90;44.40;;;;;;4958372;28;19919;-62
2021/01/18 11:02:39;;;;;;;2.17;0.73;;;20.80;44.40;;;;;;4944944;28;20034;-62
2021/01/18 11:05:10;;;;;;;2.13;1.00;;;20.70;44.40;;;;;;4949703;28;20034;-62
2021/01/18 11:07:45;;;;;;;3.00;0.95;;;20.80;44.40;;;;;;4954082;28;20043;-61
2021/01/18 11:10:11;;;;;;;4.25;0.80;;;20.80;44.30;;;;;;4966650;28;20019;-63
2021/01/18 11:12:38;;;;;;;2.08;0.98;;;20.80;44.40;;;;;;4954313;28;20043;-61
2021/01/18 11:15:35;;;;;;;3.05;1.65;;;20.80;44.30;;;;;;4945732;28;20039;-61
2021/01/18 11:18:01;;;;;;;1.77;0.90;;;20.90;44.50;;;;;;4964841;28;20481;-61
2021/01/18 11:20:28;;;;;;;2.28;0.85;;;20.90;44.10;;;;;;4957081;28;20035;-62
2021/01/18 11:22:53;;;;;;;1.92;1.00;;;20.90;44.20;;;;;;4952560;28;20055;-61
2021/01/18 11:25:20;;;;;;;1.92;0.90;;;20.80;44.40;;;;;;4954186;28;20024;-60
2021/01/18 11:27:46;;;;;;;1.70;0.80;;;20.80;44.70;;;;;;4950418;28;20117;-66
2021/01/18 11:30:12;;;;;;;2.67;0.93;;;20.90;44.80;;;;;;4971598;28;20034;-61
2021/01/18 11:32:40;;;;;;;1.58;0.70;;;20.90;44.70;;;;;;4972721;28;20046;-63
2021/01/18 11:35:06;;;;;;;1.50;0.85;;;20.90;44.70;;;;;;4957819;28;20023;-61
2021/01/18 11:37:33;;;;;;;1.73;0.85;;;20.90;45.40;;;;;;4952663;28;20051;-61
2021/01/18 11:39:59;;;;;;;1.48;0.80;;;20.90;44.60;;;;;;4952844;28;20102;-60
2021/01/18 11:42:25;;;;;;;2.42;0.90;;;21.00;44.50;;;;;;4954106;29;20166;-61
2021/01/18 11:44:50;;;;;;;3.40;1.27;;;20.90;44.50;;;;;;4952757;28;20090;-65
2021/01/18 11:47:16;;;;;;;0.90;0.70;;;20.90;44.60;;;;;;4936236;28;20482;-65
2021/01/18 11:49:42;;;;;;;1.35;0.70;;;20.90;44.50;;;;;;4947462;28;20039;-63
2021/01/18 11:52:07;;;;;;;1.85;0.80;;;20.90;44.60;;;;;;4952026;28;20869;-61
2021/01/18 11:54:33;;;;;;;1.42;0.77;;;20.90;44.60;;;;;;4953964;29;20390;-61
2021/01/18 11:56:58;;;;;;;2.40;0.85;;;20.90;44.50;;;;;;4952443;28;20042;-61
2021/01/18 11:59:24;;;;;;;2.65;1.00;;;20.90;44.50;;;;;;4961846;28;20031;-61
2021/01/18 12:01:50;;;;;;;2.63;0.93;;;20.90;44.40;;;;;;4967070;28;20034;-66
2021/01/18 12:04:16;;;;;;;2.67;0.90;;;20.90;44.40;;;;;;4954028;28;20030;-61
2021/01/18 12:06:42;;;;;;;2.95;1.00;;;20.90;44.40;;;;;;4952954;28;20065;-61
2021/01/18 12:09:09;;;;;;;2.40;0.98;;;20.90;44.30;;;;;;4950489;28;20067;-61
2021/01/18 12:11:40;;;;;;;2.17;0.88;;;20.90;44.30;;;;;;4952533;29;20027;-61
2021/01/18 12:14:07;;;;;;;1.57;0.77;;;20.90;44.30;;;;;;4952415;28;20034;-61
2021/01/18 12:16:33;;;;;;;2.05;1.15;;;20.90;44.30;;;;;;4953012;28;20028;-60
2021/01/18 12:18:59;;;;;;;1.15;0.70;;;20.90;44.30;;;;;;4952301;28;20412;-61
2021/01/18 12:21:24;;;;;;;1.95;0.80;;;20.90;44.30;;;;;;4952823;28;20039;-66
2021/01/18 12:23:50;;;;;;;2.13;1.10;;;20.90;44.70;;;;;;4951812;28;20110;-65
2021/01/18 12:26:17;;;;;;;1.15;0.60;;;20.90;44.80;;;;;;4952130;28;20054;-61
2021/01/18 12:28:43;;;;;;;2.33;0.80;;;20.90;45.20;;;;;;4947141;28;20038;-62
2021/01/18 12:31:09;;;;;;;1.23;0.68;;;20.90;45.90;;;;;;4953124;28;20039;-61
2021/01/18 12:33:34;;;;;;;2.03;0.77;;;20.90;45.80;;;;;;4951172;28;20099;-63
2021/01/18 12:36:00;;;;;;;1.67;0.77;;;20.90;45.70;;;;;;4952156;29;20417;-62
2021/01/18 12:38:26;;;;;;;1.65;0.90;;;21.00;45.60;;;;;;4950880;28;20066;-61
2021/01/18 12:40:51;;;;;;;1.10;0.65;;;20.90;45.50;;;;;;4951750;29;20054;-65
2021/01/18 12:43:18;;;;;;;1.48;0.80;;;20.90;45.50;;;;;;4953019;28;20035;-61
2021/01/18 12:45:47;;;;;;;1.48;0.75;;;21.00;45.50;;;;;;4952308;28;20039;-62
2021/01/18 12:48:14;;;;;;;1.95;0.77;;;20.90;45.40;;;;;;4950218;28;20036;-61
2021/01/18 12:50:40;;;;;;;1.48;0.90;;;20.90;46.00;;;;;;4952381;28;20032;-62
2021/01/18 12:53:07;;;;;;;2.63;0.90;;;21.00;45.30;;;;;;4965022;28;20482;-61
2021/01/18 12:55:33;;;;;;;2.13;0.77;;;20.90;45.20;;;;;;4953382;28;20027;-61
2021/01/18 12:58:01;;;;;;;2.15;0.77;;;20.90;45.10;;;;;;4951739;28;20035;-61
2021/01/18 13:00:27;;;;;;;2.65;0.82;;;20.90;45.20;;;;;;4952377;28;20035;-61
2021/01/18 13:02:53;;;;;;;2.28;0.80;;;20.90;45.10;;;;;;4951209;28;20404;-67
2021/01/18 13:05:18;;;;;;;2.03;0.80;;;20.90;45.10;;;;;;4952263;29;20385;-61
2021/01/18 13:07:49;;;;;;;1.60;0.82;;;20.90;45.00;;;;;;4952198;28;20149;-61